Time;durP1;ratioP1;P1;durP2;ratioP2;P2;SDS_P1;SDS_P2;PMS_P1;PMS_P2;Temp;Humidity;BMP_temperature;BMP_pressure;BME280_temperature;BME280_humidity;BME280_pressure;Samples;Min_cycle;Max_cycle;Signal;HPM_P1;HPM_P2
2023/01/21 00:02:20;;;;;;;11.57;8.07;;;;;;;0.23;71.21;98991.84;5105952;28;20052;-72
2023/01/21 00:04:47;;;;;;;12.25;9.18;;;;;;;0.24;71.92;98978.78;5106367;28;20043;-72
2023/01/21 00:07:15;;;;;;;10.63;8.80;;;;;;;0.07;71.21;98965.22;5106355;28;20044;-72
2023/01/21 00:09:42;;;;;;;11.55;8.65;;;;;;;0.20;71.80;98994.50;5105096;28;20040;-72
2023/01/21 00:12:08;;;;;;;12.27;8.88;;;;;;;0.21;71.57;98991.88;5105631;28;20098;-74
2023/01/21 00:14:35;;;;;;;10.68;8.75;;;;;;;0.22;71.54;98993.59;5105696;28;20055;-73
2023/01/21 00:17:02;;;;;;;13.02;9.13;;;;;;;0.20;71.77;98995.34;5106011;28;20059;-74
2023/01/21 00:19:28;;;;;;;10.32;8.00;;;;;;;0.03;72.07;98967.91;5106213;28;20039;-73
2023/01/21 00:21:55;;;;;;;10.38;8.40;;;;;;;0.17;72.05;99003.25;5105898;28;20040;-74
2023/01/21 00:24:23;;;;;;;11.13;8.82;;;;;;;0.17;72.18;99002.38;5106018;28;20191;-73
2023/01/21 00:26:50;;;;;;;11.57;9.20;;;;;;;0.18;72.16;99004.97;5106238;28;20048;-73
2023/01/21 00:29:17;;;;;;;11.82;8.70;;;;;;;-0.01;72.15;98974.91;5105727;28;20044;-73
2023/01/21 00:31:44;;;;;;;12.63;9.35;;;;;;;0.19;72.22;99003.22;5105838;28;20039;-73
2023/01/21 00:34:11;;;;;;;11.07;8.27;;;;;;;0.18;72.06;99004.97;5105825;28;20036;-74
2023/01/21 00:36:37;;;;;;;12.23;9.77;;;;;;;0.19;72.26;99000.59;5106093;28;20043;-73
2023/01/21 00:39:04;;;;;;;13.10;10.15;;;;;;;0.16;72.78;98996.31;5105547;28;20047;-73
2023/01/21 00:41:32;;;;;;;12.35;9.43;;;;;;;0.15;72.65;99007.63;5105463;28;20040;-73
2023/01/21 00:43:59;;;;;;;10.63;8.15;;;;;;;0.14;72.67;98998.09;5105488;28;20052;-73
2023/01/21 00:46:26;;;;;;;9.93;8.73;;;;;;;0.14;72.51;98992.00;5105723;28;20105;-73
2023/01/21 00:48:54;;;;;;;10.73;8.70;;;;;;;0.15;72.71;98997.19;5104538;28;20036;-74
2023/01/21 00:51:21;;;;;;;10.95;7.93;;;;;;;-1.14;72.50;98773.06;5104552;28;20322;-74
2023/01/21 00:53:48;;;;;;;12.35;8.77;;;;;;;0.19;72.58;99000.59;5105451;28;20044;-73
2023/01/21 00:56:15;;;;;;;11.18;8.02;;;;;;;-0.58;72.86;98894.38;5105606;28;20200;-73
2023/01/21 00:58:43;;;;;;;14.73;9.43;;;;;;;-0.17;73.13;98948.28;5105344;28;20044;-73
2023/01/21 01:01:12;;;;;;;10.80;7.97;;;;;;;-2.69;72.86;98528.00;5105172;28;20051;-74
2023/01/21 01:03:40;;;;;;;10.57;8.07;;;;;;;0.13;73.24;99006.78;5105268;28;20046;-73
2023/01/21 01:06:08;;;;;;;10.38;7.85;;;;;;;0.15;73.09;99005.00;5105347;28;20102;-74
2023/01/21 01:08:35;;;;;;;10.13;8.23;;;;;;;0.17;73.08;99005.84;5105514;28;20039;-73
2023/01/21 01:11:02;;;;;;;10.20;7.85;;;;;;;0.20;72.96;99007.53;5104336;28;20055;-74
2023/01/21 01:13:30;;;;;;;11.00;8.35;;;;;;;-0.72;73.04;98846.91;5105069;28;20032;-73
2023/01/21 01:15:59;;;;;;;11.18;7.97;;;;;;;0.18;73.20;98998.88;5105730;28;20032;-73
2023/01/21 01:18:27;;;;;;;9.80;6.95;;;;;;;0.17;73.39;99000.63;5104302;28;20070;-74
2023/01/21 01:20:53;;;;;;;10.15;8.45;;;;;;;0.19;73.24;98998.00;5105429;28;20196;-73
2023/01/21 01:23:20;;;;;;;9.90;7.47;;;;;;;-0.28;73.18;98934.63;5108177;28;20043;-73
2023/01/21 01:25:55;;;;;;;9.20;7.35;;;;;;;0.17;74.10;98997.16;5107937;28;20040;-74
2023/01/21 01:28:22;;;;;;;10.00;6.97;;;;;;;0.15;73.54;99006.75;5108778;28;20137;-73
2023/01/21 01:30:49;;;;;;;10.60;7.13;;;;;;;0.14;73.63;98987.66;5107847;28;20181;-73
2023/01/21 01:33:18;;;;;;;9.73;7.30;;;;;;;0.11;73.47;98992.06;5108848;28;20044;-74
2023/01/21 01:35:46;;;;;;;10.13;7.80;;;;;;;0.10;73.48;98988.59;5108952;28;20234;-73
2023/01/21 01:38:13;;;;;;;9.40;7.05;;;;;;;-0.30;73.51;98935.53;5108891;28;20365;-73
2023/01/21 01:40:40;;;;;;;10.57;8.02;;;;;;;0.16;73.51;98991.09;5108811;28;20199;-74
2023/01/21 01:43:15;;;;;;;10.40;7.60;;;;;;;0.13;74.11;98992.91;5108744;28;20035;-74
2023/01/21 01:45:42;;;;;;;10.57;8.60;;;;;;;-0.45;73.40;98897.59;5108478;28;20086;-72
2023/01/21 01:48:12;;;;;;;10.57;8.68;;;;;;;0.14;73.58;98992.88;5108348;28;20036;-72
2023/01/21 01:50:41;;;;;;;10.40;7.55;;;;;;;0.12;73.90;99005.06;5107539;28;20047;-73
2023/01/21 01:53:10;;;;;;;9.75;7.40;;;;;;;0.11;73.92;99005.97;5107334;28;20036;-73
2023/01/21 01:55:39;;;;;;;9.93;7.65;;;;;;;0.11;73.72;98998.13;5108516;28;20226;-72
2023/01/21 01:58:10;;;;;;;8.68;6.78;;;;;;;0.12;74.14;99001.59;5107317;28;20043;-73
2023/01/21 02:00:37;;;;;;;9.55;6.82;;;;;;;0.12;73.83;98999.00;5108728;28;20051;-73
2023/01/21 02:06:05;;;;;;;9.00;6.47;;;;;;;0.10;74.22;98982.53;5046489;28;20129;-73
2023/01/21 02:08:34;;;;;;;8.48;7.28;;;;;;;0.10;74.09;98975.56;5046566;28;20051;-73
2023/01/21 02:11:02;;;;;;;9.30;6.68;;;;;;;0.10;74.31;98967.75;5075490;28;20192;-73
2023/01/21 02:13:32;;;;;;;10.80;7.25;;;;;;;0.09;74.31;98971.25;5106986;28;20375;-72
2023/01/21 02:16:10;;;;;;;9.75;6.80;;;;;;;0.10;74.56;98985.13;5108213;28;20048;-73
2023/01/21 02:18:46;;;;;;;8.85;6.63;;;;;;;0.09;75.05;98978.22;5108389;28;20048;-73
2023/01/21 02:21:45;;;;;;;10.48;7.45;;;;;;;0.11;75.35;98977.28;5107818;28;20191;-73
2023/01/21 02:25:00;;;;;;;9.88;6.88;;;;;;;0.11;75.76;98982.50;5106585;28;20051;-73
2023/01/21 02:27:42;;;;;;;10.65;7.20;;;;;;;-0.37;75.66;98913.94;5061765;28;20058;-73
2023/01/21 02:30:39;;;;;;;9.23;6.63;;;;;;;0.06;75.87;98973.91;5107599;28;20048;-73
2023/01/21 02:33:36;;;;;;;9.27;6.80;;;;;;;0.05;75.74;98972.19;5106220;28;20204;-72
2023/01/21 02:36:12;;;;;;;9.85;7.30;;;;;;;-0.48;75.07;98876.84;5107372;28;20044;-73
2023/01/21 02:38:45;;;;;;;10.45;7.53;;;;;;;0.05;74.92;98963.53;5106544;28;20046;-73
2023/01/21 02:41:24;;;;;;;9.88;7.28;;;;;;;0.05;75.46;98961.78;5107343;28;20048;-73
2023/01/21 02:44:00;;;;;;;10.88;6.63;;;;;;;0.03;74.89;98955.75;5107301;28;20040;-73
2023/01/21 02:46:33;;;;;;;9.50;7.10;;;;;;;0.01;75.07;98949.69;5107814;28;20059;-73
2023/01/21 02:49:05;;;;;;;9.52;7.15;;;;;;;-0.45;75.00;98887.19;5107484;28;20389;-72
2023/01/21 02:51:32;;;;;;;9.30;6.78;;;;;;;0.01;74.66;98960.13;5107762;28;20044;-73
2023/01/21 02:53:59;;;;;;;9.95;6.88;;;;;;;0.00;74.86;98958.41;5106999;28;20036;-73
2023/01/21 02:56:27;;;;;;;9.02;6.53;;;;;;;-0.40;74.68;98888.81;5107067;28;20040;-72
2023/01/21 02:58:58;;;;;;;8.23;6.85;;;;;;;-0.03;75.08;98953.25;5107582;28;20048;-73
2023/01/21 03:01:41;;;;;;;8.98;6.43;;;;;;;-0.03;75.57;98950.63;5105985;28;20032;-73
2023/01/21 03:04:37;;;;;;;9.25;7.15;;;;;;;-0.04;76.31;98955.00;5107219;28;20036;-73
2023/01/21 03:07:12;;;;;;;9.73;6.30;;;;;;;-0.04;75.30;98951.53;5106941;28;20327;-73
2023/01/21 03:09:39;;;;;;;9.43;6.88;;;;;;;-0.02;74.91;98949.75;5106848;28;20054;-73
2023/01/21 03:12:25;;;;;;;8.50;6.63;;;;;;;-0.02;75.00;98954.97;5107062;28;20044;-72
2023/01/21 03:17:48;;;;;;;8.93;6.93;;;;;;;-0.04;74.96;98967.16;5105840;28;20039;-73
2023/01/21 03:20:23;;;;;;;7.82;6.22;;;;;;;-0.05;75.37;98955.88;5105799;28;20044;-73
2023/01/21 03:22:55;;;;;;;8.88;6.38;;;;;;;-0.48;75.20;98882.91;5106544;28;20051;-72
2023/01/21 03:25:23;;;;;;;8.98;6.60;;;;;;;-0.04;74.79;98952.38;5106499;28;20040;-73
2023/01/21 03:27:52;;;;;;;9.60;6.95;;;;;;;-0.02;74.91;98951.50;5106470;28;20090;-73
2023/01/21 03:30:24;;;;;;;9.63;6.60;;;;;;;-0.03;75.17;98945.44;5106654;28;20051;-73
2023/01/21 03:32:52;;;;;;;9.65;7.80;;;;;;;-0.03;75.14;98945.44;5106854;28;20066;-72
2023/01/21 03:35:24;;;;;;;10.00;8.05;;;;;;;-0.02;75.16;98949.75;5106573;28;20295;-72
2023/01/21 03:37:56;;;;;;;8.85;6.65;;;;;;;-0.02;75.17;98948.91;5106501;28;20207;-73
2023/01/21 03:40:28;;;;;;;10.20;7.18;;;;;;;-0.07;75.16;98957.66;5106768;28;20046;-73
2023/01/21 03:42:55;;;;;;;9.95;7.05;;;;;;;-0.06;75.08;98961.13;5106402;28;20048;-73
2023/01/21 03:45:32;;;;;;;8.82;6.88;;;;;;;-0.14;75.73;98929.16;5104443;28;20032;-73
2023/01/21 03:48:05;;;;;;;12.60;7.32;;;;;;;-0.04;75.17;98954.13;5106345;28;20086;-73
2023/01/21 03:50:38;;;;;;;10.80;7.70;;;;;;;-0.04;75.21;98956.75;5106091;28;20040;-73
2023/01/21 03:53:06;;;;;;;9.70;6.63;;;;;;;-0.02;75.01;98952.34;5105963;28;20047;-72
2023/01/21 03:55:34;;;;;;;12.07;7.47;;;;;;;-0.02;74.78;98954.97;5106266;28;20051;-73
2023/01/21 03:58:01;;;;;;;9.13;6.45;;;;;;;-0.01;74.88;98953.22;5106246;28;20184;-73
2023/01/21 04:00:28;;;;;;;9.27;6.25;;;;;;;-0.01;74.63;98951.47;5106250;28;20240;-73
2023/01/21 04:02:55;;;;;;;9.88;6.82;;;;;;;0.00;74.45;98950.59;5105897;28;20112;-73
2023/01/21 04:05:22;;;;;;;9.52;7.20;;;;;;;0.00;74.47;98950.59;5105815;28;20230;-73
2023/01/21 04:07:50;;;;;;;9.70;6.90;;;;;;;0.01;74.30;98954.91;5106245;28;20056;-73
2023/01/21 04:10:17;;;;;;;8.60;6.75;;;;;;;0.02;74.05;98955.75;5106282;28;20063;-72
2023/01/21 04:12:44;;;;;;;10.32;7.25;;;;;;;0.01;74.09;98964.47;5105697;28;20089;-73
2023/01/21 04:15:11;;;;;;;10.30;7.63;;;;;;;-0.00;74.04;98949.72;5104911;28;20058;-73
2023/01/21 04:17:38;;;;;;;10.43;7.88;;;;;;;0.01;74.09;98951.44;5106313;28;20044;-73
2023/01/21 04:20:07;;;;;;;9.82;7.70;;;;;;;0.02;74.15;98958.38;5104882;28;20036;-73
2023/01/21 04:22:33;;;;;;;11.48;8.38;;;;;;;0.03;73.87;98947.91;5104877;28;20051;-72
2023/01/21 04:25:01;;;;;;;9.85;7.10;;;;;;;0.02;74.28;98955.75;5106167;28;20044;-73
2023/01/21 04:27:28;;;;;;;8.88;7.20;;;;;;;0.00;74.11;98945.38;5104833;28;20032;-73
2023/01/21 04:29:55;;;;;;;11.18;7.93;;;;;;;-0.00;74.14;98941.91;5105914;28;20043;-73
2023/01/21 04:32:22;;;;;;;10.23;8.02;;;;;;;-2.28;73.63;98551.56;5106158;28;20183;-72
2023/01/21 04:34:49;;;;;;;11.75;8.27;;;;;;;-0.85;73.85;98782.97;5104667;28;20040;-73
2023/01/21 04:37:15;;;;;;;9.27;7.68;;;;;;;0.00;73.81;98921.94;5106084;28;20055;-73
2023/01/21 04:39:42;;;;;;;10.10;7.25;;;;;;;0.00;73.80;98916.72;5106037;28;20046;-73
2023/01/21 04:42:10;;;;;;;9.30;7.63;;;;;;;-0.31;73.52;98879.97;5105378;28;20047;-73
2023/01/21 04:44:37;;;;;;;11.18;8.43;;;;;;;-0.02;73.53;98941.09;5105990;28;20170;-73
2023/01/21 04:47:04;;;;;;;10.75;7.05;;;;;;;-0.04;73.64;98930.69;5105440;28;20044;-73
2023/01/21 04:49:30;;;;;;;9.02;6.90;;;;;;;-0.05;73.53;98945.47;5105360;28;20040;-73
2023/01/21 04:51:57;;;;;;;9.82;7.63;;;;;;;-0.08;73.70;98944.66;5104571;28;20114;-73
2023/01/21 04:54:24;;;;;;;9.35;6.63;;;;;;;-0.08;73.46;98945.53;5105658;28;20110;-72
2023/01/21 04:56:51;;;;;;;10.13;7.00;;;;;;;-0.07;73.17;98943.78;5105433;28;20040;-72
2023/01/21 04:59:19;;;;;;;10.60;7.68;;;;;;;-0.26;73.25;98916.34;5108489;28;20047;-72
2023/01/21 05:01:46;;;;;;;10.68;6.55;;;;;;;-0.06;73.22;98969.78;5108349;28;20082;-72
2023/01/21 05:04:13;;;;;;;10.23;6.68;;;;;;;-0.07;73.26;98962.88;5109264;28;20051;-72
2023/01/21 05:06:39;;;;;;;9.88;7.05;;;;;;;-0.05;73.26;98979.34;5108339;28;20223;-73
2023/01/21 05:09:06;;;;;;;11.68;8.02;;;;;;;-0.56;73.11;98891.75;5109419;28;20055;-73
2023/01/21 05:11:33;;;;;;;9.32;7.20;;;;;;;-0.04;73.15;98988.00;5108311;28;20043;-72
2023/01/21 05:14:00;;;;;;;11.70;7.80;;;;;;;-0.04;73.29;98985.41;5109573;28;20043;-72
2023/01/21 05:16:28;;;;;;;11.18;8.18;;;;;;;-0.05;73.03;98978.47;5108992;28;20040;-73
2023/01/21 05:18:55;;;;;;;10.05;7.28;;;;;;;-0.05;73.05;98981.06;5109292;28;20040;-73
2023/01/21 05:21:22;;;;;;;10.05;6.90;;;;;;;-0.04;72.86;98988.00;5108915;28;20085;-73
2023/01/21 05:23:48;;;;;;;11.60;8.88;;;;;;;-0.06;73.02;98980.22;5109223;28;20047;-73
2023/01/21 05:26:15;;;;;;;10.02;7.30;;;;;;;-0.07;72.91;98983.72;5109442;28;20062;-73
2023/01/21 05:28:42;;;;;;;10.75;7.85;;;;;;;-0.06;72.99;98992.38;5107976;28;20036;-72
2023/01/21 05:31:08;;;;;;;9.23;6.80;;;;;;;-0.04;72.71;98993.22;5108799;28;20300;-72
2023/01/21 05:33:37;;;;;;;9.85;7.95;;;;;;;-0.04;72.69;98994.06;5107797;28;20048;-72
2023/01/21 05:36:04;;;;;;;9.30;7.53;;;;;;;-0.04;72.61;98998.44;5107907;28;20114;-72
2023/01/21 05:38:31;;;;;;;11.65;7.93;;;;;;;-0.05;72.61;98997.56;5108939;28;20296;-71
2023/01/21 05:40:58;;;;;;;9.52;6.70;;;;;;;-0.07;72.85;99006.28;5109178;28;20048;-72
2023/01/21 05:43:25;;;;;;;10.55;7.82;;;;;;;-0.05;72.73;99000.16;5108884;28;20043;-72
2023/01/21 05:45:52;;;;;;;10.07;7.22;;;;;;;-0.05;72.48;99017.53;5108741;28;20058;-72
2023/01/21 05:48:19;;;;;;;10.63;7.53;;;;;;;-1.01;72.61;98857.78;5107617;28;20044;-72
2023/01/21 05:50:48;;;;;;;11.25;7.57;;;;;;;-0.09;72.74;99013.28;5108913;28;20036;-72
2023/01/21 05:53:15;;;;;;;12.15;7.90;;;;;;;-0.06;72.58;99016.69;5108347;28;20040;-72
2023/01/21 05:55:42;;;;;;;10.15;7.68;;;;;;;-0.05;72.58;99013.19;5108324;28;20326;-72
2023/01/21 05:58:09;;;;;;;10.25;7.40;;;;;;;-0.05;72.63;99021.00;5108187;28;20044;-72
2023/01/21 06:00:35;;;;;;;10.07;7.55;;;;;;;-0.06;72.63;99041.88;5108252;28;20051;-72
2023/01/21 06:03:02;;;;;;;10.27;7.00;;;;;;;-0.05;72.47;99036.66;5108122;28;20065;-72
2023/01/21 06:05:29;;;;;;;9.85;7.57;;;;;;;-0.04;72.46;99047.94;5108128;28;20035;-72
2023/01/21 06:07:57;;;;;;;11.45;6.90;;;;;;;-0.23;72.45;99012.66;5106672;28;20040;-72
2023/01/21 06:10:24;;;;;;;8.00;6.38;;;;;;;-0.05;72.19;99049.66;5106698;28;20044;-72
2023/01/21 06:12:51;;;;;;;11.07;7.05;;;;;;;-0.05;72.11;99052.28;5108526;28;20050;-72
2023/01/21 06:15:18;;;;;;;10.40;7.60;;;;;;;-0.04;72.35;99056.59;5107837;28;20032;-72
2023/01/21 06:17:45;;;;;;;8.85;6.35;;;;;;;-0.04;71.88;99054.00;5108076;28;20238;-72
2023/01/21 06:20:13;;;;;;;9.85;6.63;;;;;;;-0.04;72.01;99063.56;5107818;28;20040;-72
2023/01/21 06:22:39;;;;;;;10.27;6.97;;;;;;;-0.04;71.97;99061.81;5108349;28;20051;-72
2023/01/21 06:25:08;;;;;;;10.93;7.50;;;;;;;-0.04;72.22;99058.34;5107689;28;20043;-72
2023/01/21 06:27:37;;;;;;;9.70;6.97;;;;;;;-0.03;72.08;99060.06;5107625;28;20036;-72
2023/01/21 06:30:05;;;;;;;8.23;6.43;;;;;;;-0.01;71.99;99066.09;5108164;28;20089;-72
2023/01/21 06:32:32;;;;;;;11.90;7.03;;;;;;;-0.02;71.93;99066.13;5108053;28;20044;-72
2023/01/21 06:34:59;;;;;;;11.15;6.82;;;;;;;0.00;71.87;99073.03;5106854;28;20292;-72
2023/01/21 06:37:26;;;;;;;8.30;6.00;;;;;;;-0.50;71.98;99006.16;5107799;28;20054;-72
2023/01/21 06:39:53;;;;;;;9.23;6.40;;;;;;;0.01;71.80;99085.19;5107311;28;20063;-72
2023/01/21 06:42:22;;;;;;;11.85;7.47;;;;;;;0.02;72.07;99086.91;5107890;28;20045;-72
2023/01/21 06:44:49;;;;;;;15.38;8.50;;;;;;;0.05;71.91;99096.41;5106495;28;20077;-73
2023/01/21 06:47:15;;;;;;;9.10;6.60;;;;;;;0.05;71.70;99099.88;5107563;28;20051;-72
2023/01/21 06:49:42;;;;;;;8.18;6.53;;;;;;;-2.73;71.47;98627.50;5107223;28;20062;-72
2023/01/21 06:52:09;;;;;;;8.57;5.93;;;;;;;0.07;71.66;99097.25;5107113;28;20046;-72
2023/01/21 06:54:36;;;;;;;9.95;6.75;;;;;;;0.05;71.95;99086.84;5107579;28;20040;-73
2023/01/21 06:57:03;;;;;;;8.95;6.88;;;;;;;-0.40;72.03;99011.19;5107504;28;20039;-72
2023/01/21 06:59:31;;;;;;;9.40;6.53;;;;;;;0.05;72.36;99086.84;5106856;28;20047;-72
2023/01/21 07:01:58;;;;;;;7.57;5.97;;;;;;;0.04;72.50;99085.13;5106927;28;20222;-72
2023/01/21 07:04:25;;;;;;;9.57;6.60;;;;;;;0.05;72.52;99086.84;5106941;28;20296;-72
2023/01/21 07:06:52;;;;;;;9.07;6.82;;;;;;;0.04;72.76;99079.06;5107140;28;20040;-72
2023/01/21 07:09:19;;;;;;;8.95;6.53;;;;;;;-0.22;72.98;99043.03;5107582;28;20219;-72
2023/01/21 07:11:46;;;;;;;12.88;7.05;;;;;;;0.01;73.21;99077.38;5107322;28;20063;-72
2023/01/21 07:14:13;;;;;;;9.20;6.18;;;;;;;0.02;73.15;99076.47;5106609;28;20036;-72
2023/01/21 07:16:41;;;;;;;8.50;5.88;;;;;;;-1.43;73.01;98836.78;5107172;28;20062;-72
2023/01/21 07:19:08;;;;;;;9.10;6.53;;;;;;;0.03;72.94;99091.22;5105762;28;20036;-72
2023/01/21 07:21:34;;;;;;;8.90;6.07;;;;;;;0.02;73.23;99092.09;5106432;28;20048;-72
2023/01/21 07:24:01;;;;;;;8.88;6.47;;;;;;;0.04;73.02;99094.69;5107104;28;20048;-72
2023/01/21 07:26:28;;;;;;;8.00;5.50;;;;;;;0.05;72.93;99099.00;5106485;28;20044;-72
2023/01/21 07:28:55;;;;;;;8.50;6.05;;;;;;;0.03;72.99;99098.19;5106999;28;20051;-73
2023/01/21 07:31:21;;;;;;;9.05;6.35;;;;;;;0.03;73.16;99101.66;5106486;28;20044;-72
2023/01/21 07:33:49;;;;;;;9.25;6.20;;;;;;;0.02;73.05;99110.34;5106364;28;20055;-71
2023/01/21 07:36:16;;;;;;;8.18;6.20;;;;;;;-0.88;72.87;98952.13;5105348;28;20311;-72
2023/01/21 07:38:43;;;;;;;9.18;6.18;;;;;;;0.04;72.79;99108.56;5105461;28;20048;-72
2023/01/21 07:41:10;;;;;;;8.73;5.65;;;;;;;0.05;72.79;99107.69;5106502;28;20055;-72
2023/01/21 07:43:36;;;;;;;8.70;5.93;;;;;;;0.05;72.77;99107.69;5106622;28;20040;-71
2023/01/21 07:46:03;;;;;;;9.60;6.43;;;;;;;0.04;72.71;99111.19;5106065;28;20055;-72
2023/01/21 07:48:30;;;;;;;8.60;5.55;;;;;;;0.06;72.79;99130.25;5105404;28;20039;-71
2023/01/21 07:50:59;;;;;;;7.20;5.35;;;;;;;0.07;72.77;99129.38;5106436;28;20048;-72
2023/01/21 07:53:26;;;;;;;6.68;5.07;;;;;;;0.07;72.69;99118.94;5105956;28;20040;-71
2023/01/21 07:55:53;;;;;;;7.82;5.47;;;;;;;0.09;72.70;99122.38;5106366;28;20063;-72
2023/01/21 07:58:20;;;;;;;7.20;5.35;;;;;;;0.10;72.45;99118.91;5105210;28;20303;-71
2023/01/21 08:00:46;;;;;;;9.20;6.00;;;;;;;0.09;72.41;99117.19;5106213;28;20288;-71
2023/01/21 08:03:13;;;;;;;6.57;4.88;;;;;;;0.10;72.43;99139.75;5105855;28;20043;-72
2023/01/21 08:05:40;;;;;;;7.20;5.32;;;;;;;0.10;72.44;99131.94;5105913;28;20040;-72
2023/01/21 08:08:08;;;;;;;7.40;5.53;;;;;;;0.11;72.50;99131.03;5105856;28;20062;-72
2023/01/21 08:10:35;;;;;;;7.97;5.25;;;;;;;0.13;72.54;99131.88;5105200;28;20230;-71
2023/01/21 08:13:02;;;;;;;7.63;5.57;;;;;;;0.15;72.45;99148.34;5106257;28;20066;-72
2023/01/21 08:15:29;;;;;;;7.72;5.78;;;;;;;0.16;72.51;99139.66;5105674;28;20048;-72
2023/01/21 08:17:56;;;;;;;8.27;5.43;;;;;;;0.17;72.48;99141.38;5105795;28;20218;-72
2023/01/21 08:20:23;;;;;;;8.15;6.28;;;;;;;0.17;72.18;99141.38;5104813;28;20048;-72
2023/01/21 08:22:50;;;;;;;8.38;6.50;;;;;;;0.04;72.15;99102.50;5106178;28;20063;-71
2023/01/21 08:25:19;;;;;;;9.50;7.03;;;;;;;0.21;72.27;99139.56;5105914;28;20040;-72
2023/01/21 08:27:45;;;;;;;8.98;6.38;;;;;;;-0.51;72.17;99014.88;5106168;28;20044;-72
2023/01/21 08:30:13;;;;;;;11.15;6.35;;;;;;;0.21;71.85;99142.16;5104719;28;20056;-72
2023/01/21 08:32:40;;;;;;;9.77;6.53;;;;;;;0.24;71.84;99148.19;5108172;28;20050;-72
2023/01/21 08:35:08;;;;;;;8.10;5.70;;;;;;;0.25;71.95;99154.25;5110306;28;20051;-71
2023/01/21 08:37:35;;;;;;;7.65;5.72;;;;;;;0.25;71.76;99136.03;5109975;28;20052;-72
2023/01/21 08:40:02;;;;;;;8.40;5.80;;;;;;;0.25;71.78;99142.09;5109989;28;20058;-72
2023/01/21 08:42:30;;;;;;;9.43;6.45;;;;;;;0.26;71.81;99156.00;5109548;28;20039;-71
2023/01/21 08:44:57;;;;;;;7.18;5.18;;;;;;;0.26;71.71;99136.00;5109579;28;20040;-72
2023/01/21 08:47:24;;;;;;;8.00;5.88;;;;;;;0.25;71.63;99159.47;5109176;28;20103;-72
2023/01/21 08:49:50;;;;;;;7.35;5.50;;;;;;;0.24;71.45;99160.38;5109428;28;20040;-72
2023/01/21 08:52:17;;;;;;;7.68;5.80;;;;;;;-0.79;71.53;98984.06;5108331;28;20057;-72
2023/01/21 08:54:44;;;;;;;8.55;5.68;;;;;;;0.24;71.52;99163.84;5109034;28;20040;-72
2023/01/21 08:57:11;;;;;;;8.13;5.10;;;;;;;0.23;71.71;99154.28;5108118;28;20226;-72
2023/01/21 08:59:39;;;;;;;12.50;6.28;;;;;;;0.22;71.63;99160.38;5109234;28;20181;-72
2023/01/21 09:02:07;;;;;;;7.88;5.68;;;;;;;0.20;71.62;99162.16;5107795;28;20056;-73
2023/01/21 09:04:34;;;;;;;12.52;5.90;;;;;;;0.20;71.51;99159.56;5109462;28;20123;-72
2023/01/21 09:07:00;;;;;;;8.30;5.20;;;;;;;0.22;71.49;99172.56;5109260;28;20040;-72
2023/01/21 09:09:27;;;;;;;8.00;6.00;;;;;;;0.22;71.52;99183.00;5108838;28;20226;-73
2023/01/21 09:11:54;;;;;;;7.97;5.47;;;;;;;0.22;71.58;99190.81;5108983;28;20326;-72
2023/01/21 09:14:21;;;;;;;10.02;6.95;;;;;;;0.21;71.44;99197.75;5107840;28;20203;-73
2023/01/21 09:16:50;;;;;;;10.15;7.32;;;;;;;0.20;71.51;99203.00;5108619;28;20055;-72
2023/01/21 09:19:17;;;;;;;10.20;6.53;;;;;;;0.22;71.73;99204.69;5107796;28;20036;-72
2023/01/21 09:21:43;;;;;;;10.07;6.75;;;;;;;0.23;71.80;99210.78;5109017;28;20040;-72
2023/01/21 09:24:10;;;;;;;10.88;6.03;;;;;;;0.22;71.85;99214.25;5107607;28;20040;-72
2023/01/21 09:26:37;;;;;;;10.50;6.68;;;;;;;0.21;71.79;99215.16;5108283;28;20044;-72
2023/01/21 09:29:04;;;;;;;8.85;6.03;;;;;;;0.22;71.86;99222.09;5107228;28;20042;-72
2023/01/21 09:31:31;;;;;;;10.85;5.75;;;;;;;0.21;71.97;99210.81;5107781;28;20062;-72
2023/01/21 09:34:02;;;;;;;8.30;5.88;;;;;;;-0.50;72.15;99085.13;5107700;28;20051;-73
2023/01/21 09:36:31;;;;;;;8.00;5.72;;;;;;;0.21;71.79;99205.59;5108425;28;20348;-73
2023/01/21 09:38:59;;;;;;;8.15;5.70;;;;;;;0.23;71.78;99193.38;5108541;28;20043;-72
2023/01/21 09:41:29;;;;;;;11.27;7.03;;;;;;;0.22;71.61;99189.06;5107357;28;20046;-73
2023/01/21 09:44:12;;;;;;;9.10;5.93;;;;;;;0.21;72.21;99189.09;5108180;28;20295;-73
2023/01/21 09:46:46;;;;;;;8.05;6.35;;;;;;;0.05;72.11;99174.59;5108385;28;20040;-73
2023/01/21 09:49:18;;;;;;;7.53;5.38;;;;;;;0.19;72.26;99183.03;5108182;28;20280;-73
2023/01/21 09:51:49;;;;;;;9.32;5.47;;;;;;;0.18;72.17;99190.00;5108755;28;20045;-73
2023/01/21 09:54:23;;;;;;;8.57;6.03;;;;;;;0.18;72.39;99187.38;5108523;28;20044;-73
2023/01/21 09:57:08;;;;;;;7.43;5.68;;;;;;;0.21;72.33;99181.28;5108612;28;20048;-73
2023/01/21 09:59:47;;;;;;;7.32;5.68;;;;;;;0.21;72.66;99183.88;5108451;28;20048;-73
2023/01/21 10:02:23;;;;;;;7.78;5.57;;;;;;;0.21;72.40;99186.47;5107839;28;20242;-73
2023/01/21 10:05:06;;;;;;;10.35;5.88;;;;;;;0.21;72.72;99184.72;5108209;28;20298;-73
2023/01/21 10:07:38;;;;;;;7.38;5.80;;;;;;;0.21;72.57;99179.53;5108135;28;20051;-73
2023/01/21 10:10:13;;;;;;;7.78;5.90;;;;;;;0.26;72.70;99182.06;5108428;28;20052;-73
2023/01/21 10:13:13;;;;;;;6.55;5.13;;;;;;;0.28;73.27;99178.53;5107804;28;20048;-73
2023/01/21 10:15:49;;;;;;;8.88;5.03;;;;;;;0.27;72.67;99174.22;5096689;28;20242;-72
2023/01/21 10:18:22;;;;;;;6.72;5.13;;;;;;;0.30;72.77;99259.31;5107606;28;20055;-73
2023/01/21 10:20:54;;;;;;;9.60;5.25;;;;;;;0.32;72.53;99176.75;5106674;28;20046;-73
2023/01/21 10:23:26;;;;;;;8.07;6.32;;;;;;;0.34;72.65;99177.56;5107916;28;20312;-73
2023/01/21 10:25:54;;;;;;;7.72;6.07;;;;;;;0.38;72.41;99178.38;5107955;28;20039;-73
2023/01/21 10:28:24;;;;;;;8.55;6.28;;;;;;;0.39;72.45;99183.56;5107584;28;20048;-73
2023/01/21 10:30:52;;;;;;;10.25;5.93;;;;;;;0.38;72.41;99171.41;5107557;28;20046;-73
2023/01/21 10:33:22;;;;;;;7.18;5.50;;;;;;;0.42;72.15;99177.44;5106653;28;20039;-73
2023/01/21 10:36:07;;;;;;;9.95;6.13;;;;;;;0.43;72.36;99173.94;5107894;28;20049;-73
2023/01/21 10:38:43;;;;;;;7.50;5.30;;;;;;;0.43;72.17;99168.72;5107809;28;20044;-72
2023/01/21 10:41:36;;;;;;;8.35;5.63;;;;;;;0.45;72.33;99156.53;5107872;28;20055;-72
2023/01/21 10:44:13;;;;;;;8.23;5.57;;;;;;;0.46;71.76;99164.31;5107508;28;20044;-72
2023/01/21 10:46:46;;;;;;;7.97;4.90;;;;;;;0.45;71.56;99162.59;5107277;28;20330;-72
2023/01/21 10:49:26;;;;;;;9.57;5.47;;;;;;;0.47;71.81;99157.38;5107243;28;20077;-73
2023/01/21 10:52:03;;;;;;;7.97;5.45;;;;;;;0.48;71.95;99159.94;5106308;28;20046;-73
2023/01/21 10:54:46;;;;;;;7.30;5.35;;;;;;;0.49;71.97;99153.84;5106495;28;20157;-73
2023/01/21 10:57:30;;;;;;;8.40;5.43;;;;;;;0.48;71.80;99151.25;5107117;28;20051;-72
2023/01/21 11:00:00;;;;;;;7.50;5.18;;;;;;;0.47;71.45;99154.75;5106945;28;20050;-73
2023/01/21 11:02:30;;;;;;;7.05;5.10;;;;;;;0.45;71.46;99154.78;5106726;28;20339;-72
2023/01/21 11:05:00;;;;;;;7.13;5.05;;;;;;;0.29;71.39;99128.13;5105746;28;20250;-73
2023/01/21 11:07:36;;;;;;;5.90;4.50;;;;;;;-0.29;71.10;99026.66;5106826;28;20052;-72
2023/01/21 11:10:04;;;;;;;8.35;5.70;;;;;;;0.42;71.37;99148.75;5106487;28;20035;-72
2023/01/21 11:12:31;;;;;;;8.10;5.10;;;;;;;0.43;71.23;99137.44;5105576;28;20036;-72
2023/01/21 11:15:02;;;;;;;7.93;5.55;;;;;;;0.41;71.18;99141.81;5106697;28;20036;-73
2023/01/21 11:17:33;;;;;;;6.68;4.65;;;;;;;0.39;71.26;99136.66;5106759;28;20200;-72
2023/01/21 11:20:02;;;;;;;6.20;4.70;;;;;;;0.36;71.07;99138.44;5106715;28;20098;-72
2023/01/21 11:22:31;;;;;;;6.15;4.60;;;;;;;0.33;71.18;99138.50;5106904;28;20043;-72
2023/01/21 11:25:01;;;;;;;7.55;5.10;;;;;;;0.33;71.25;99138.50;5106321;28;20032;-72
2023/01/21 11:27:36;;;;;;;8.63;5.95;;;;;;;0.33;71.09;99141.97;5106361;28;20048;-72
2023/01/21 11:30:04;;;;;;;7.65;5.60;;;;;;;0.36;70.93;99133.22;5106161;28;20035;-73
2023/01/21 11:32:32;;;;;;;6.45;5.03;;;;;;;-1.06;70.82;98930.69;5104376;28;20076;-72
2023/01/21 11:35:03;;;;;;;6.57;4.60;;;;;;;0.36;70.80;99128.00;5106126;28;20036;-72
2023/01/21 11:37:33;;;;;;;9.18;5.72;;;;;;;0.33;70.77;99128.94;5106423;28;20116;-73
2023/01/21 11:40:04;;;;;;;12.05;6.70;;;;;;;0.34;70.59;99119.34;5106323;28;20106;-72
2023/01/21 11:42:31;;;;;;;7.45;4.93;;;;;;;0.36;70.66;99125.41;5106096;28;20044;-73
2023/01/21 11:45:00;;;;;;;7.35;5.05;;;;;;;0.36;70.61;99126.25;5106624;28;20060;-72
2023/01/21 11:47:37;;;;;;;8.00;5.90;;;;;;;0.39;70.75;99127.97;5105175;28;20051;-72
2023/01/21 11:50:12;;;;;;;6.63;5.20;;;;;;;0.38;70.86;99128.84;5106484;28;20047;-72
2023/01/21 11:52:41;;;;;;;7.10;5.40;;;;;;;0.39;70.60;99127.97;5105838;28;20047;-72
2023/01/21 11:55:22;;;;;;;6.63;5.47;;;;;;;0.38;70.59;99127.09;5106144;28;20036;-72